Terminal Aerodrome Forecast
Issued by NWS Blacksburg, VA

Home | Current Version | Previous Version | Text Only | Print | Product List | Glossary On
Versions: 1 2 3 4 5 6 7 8 9 10 11 12 13 14 15 16 17 18
000
FTUS41 KRNK 281722
TAFDAN
TAF
KDAN 281722Z 2818/2918 25004KT P6SM VCTS SCT030 BKN050CB
      TEMPO 2818/2821 3SM TSRA OVC030CB
     FM282100 27009KT P6SM SCT035 BKN150
     FM290000 28004KT P6SM SCT150
     FM291300 02005KT P6SM SCT045=

USA.gov is the U.S. government's official web portal to all federal, state and local government web resources and services.